sensor_id;sensor_type;location;lat;lon;timestamp;temperature;humidity
2409;DHT22;8463;48.094;7.970;2022-08-11T00:01:26;21.80;1.00
2409;DHT22;8463;48.094;7.970;2022-08-11T00:04:01;21.70;1.00
2409;DHT22;8463;48.094;7.970;2022-08-11T00:06:36;21.60;1.00
2409;DHT22;8463;48.094;7.970;2022-08-11T00:09:29;21.60;1.00
2409;DHT22;8463;48.094;7.970;2022-08-11T00:11:57;21.60;1.00
2409;DHT22;8463;48.094;7.970;2022-08-11T00:14:29;21.60;1.00
2409;DHT22;8463;48.094;7.970;2022-08-11T00:16:58;21.70;1.00
2409;DHT22;8463;48.094;7.970;2022-08-11T00:19:33;21.70;1.00
2409;DHT22;8463;48.094;7.970;2022-08-11T00:22:00;21.60;1.00
2409;DHT22;8463;48.094;7.970;2022-08-11T00:24:35;21.50;1.00
2409;DHT22;8463;48.094;7.970;2022-08-11T00:27:02;21.40;1.00
2409;DHT22;8463;48.094;7.970;2022-08-11T00:29:28;21.40;1.00
2409;DHT22;8463;48.094;7.970;2022-08-11T00:31:57;21.40;1.00
2409;DHT22;8463;48.094;7.970;2022-08-11T00:34:27;21.40;1.00
2409;DHT22;8463;48.094;7.970;2022-08-11T00:36:59;21.30;1.00
2409;DHT22;8463;48.094;7.970;2022-08-11T00:39:26;21.30;1.00
2409;DHT22;8463;48.094;7.970;2022-08-11T00:45:09;21.20;1.00
2409;DHT22;8463;48.094;7.970;2022-08-11T01:02:44;21.00;1.00
2409;DHT22;8463;48.094;7.970;2022-08-11T01:04:41;21.00;1.00
2409;DHT22;8463;48.094;7.970;2022-08-11T01:36:54;20.90;1.00
2409;DHT22;8463;48.094;7.970;2022-08-11T01:39:50;20.80;1.00
2409;DHT22;8463;48.094;7.970;2022-08-11T01:43:03;21.00;1.00
2409;DHT22;8463;48.094;7.970;2022-08-11T01:45:56;21.00;1.00
2409;DHT22;8463;48.094;7.970;2022-08-11T02:05:09;20.90;1.00
2409;DHT22;8463;48.094;7.970;2022-08-11T02:10:54;20.70;1.00
2409;DHT22;8463;48.094;7.970;2022-08-11T02:28:28;20.80;1.00
2409;DHT22;8463;48.094;7.970;2022-08-11T02:31:08;20.80;1.00
2409;DHT22;8463;48.094;7.970;2022-08-11T02:40:15;20.60;1.00
2409;DHT22;8463;48.094;7.970;2022-08-11T02:48:45;20.50;1.00
2409;DHT22;8463;48.094;7.970;2022-08-11T02:54:16;20.30;1.00
2409;DHT22;8463;48.094;7.970;2022-08-11T02:57:01;20.30;1.00
2409;DHT22;8463;48.094;7.970;2022-08-11T02:59:52;20.30;1.00
2409;DHT22;8463;48.094;7.970;2022-08-11T03:10:24;20.20;1.00
2409;DHT22;8463;48.094;7.970;2022-08-11T03:13:15;20.20;1.00
2409;DHT22;8463;48.094;7.970;2022-08-11T03:16:12;20.30;1.00
2409;DHT22;8463;48.094;7.970;2022-08-11T03:19:35;20.10;1.00
2409;DHT22;8463;48.094;7.970;2022-08-11T03:41:44;19.70;1.00
2409;DHT22;8463;48.094;7.970;2022-08-11T03:58:00;19.60;1.50
2409;DHT22;8463;48.094;7.970;2022-08-11T04:14:45;19.40;2.40
2409;DHT22;8463;48.094;7.970;2022-08-11T04:29:16;19.20;2.70
2409;DHT22;8463;48.094;7.970;2022-08-11T04:32:03;19.40;2.70
2409;DHT22;8463;48.094;7.970;2022-08-11T04:46:00;19.30;3.10
2409;DHT22;8463;48.094;7.970;2022-08-11T04:57:50;19.20;3.20
2409;DHT22;8463;48.094;7.970;2022-08-11T05:01:22;19.20;3.50
2409;DHT22;8463;48.094;7.970;2022-08-11T05:04:15;19.10;3.60
2409;DHT22;8463;48.094;7.970;2022-08-11T05:12:52;19.40;3.40
2409;DHT22;8463;48.094;7.970;2022-08-11T05:15:45;19.40;3.30
2409;DHT22;8463;48.094;7.970;2022-08-11T05:18:30;19.50;3.10
2409;DHT22;8463;48.094;7.970;2022-08-11T05:21:17;19.60;3.20
2409;DHT22;8463;48.094;7.970;2022-08-11T05:24:19;19.70;3.20
2409;DHT22;8463;48.094;7.970;2022-08-11T05:27:04;19.60;2.70
2409;DHT22;8463;48.094;7.970;2022-08-11T05:30:10;19.70;2.80
2409;DHT22;8463;48.094;7.970;2022-08-11T05:33:04;19.90;2.40
2409;DHT22;8463;48.094;7.970;2022-08-11T05:36:05;20.10;2.20
2409;DHT22;8463;48.094;7.970;2022-08-11T05:38:34;20.30;1.60
2409;DHT22;8463;48.094;7.970;2022-08-11T05:41:22;20.40;1.60
2409;DHT22;8463;48.094;7.970;2022-08-11T05:44:07;20.70;1.00
2409;DHT22;8463;48.094;7.970;2022-08-11T05:46:53;20.70;1.40
2409;DHT22;8463;48.094;7.970;2022-08-11T05:49:38;20.80;1.30
2409;DHT22;8463;48.094;7.970;2022-08-11T05:52:24;21.00;1.00
2409;DHT22;8463;48.094;7.970;2022-08-11T05:55:10;21.10;1.00
2409;DHT22;8463;48.094;7.970;2022-08-11T05:57:58;21.20;1.00
2409;DHT22;8463;48.094;7.970;2022-08-11T06:00:25;21.30;1.00
2409;DHT22;8463;48.094;7.970;2022-08-11T06:02:56;21.50;1.00
2409;DHT22;8463;48.094;7.970;2022-08-11T06:05:24;21.90;1.00
2409;DHT22;8463;48.094;7.970;2022-08-11T06:07:56;22.00;1.00
2409;DHT22;8463;48.094;7.970;2022-08-11T06:10:36;22.10;1.00
2409;DHT22;8463;48.094;7.970;2022-08-11T06:13:03;22.20;1.00
2409;DHT22;8463;48.094;7.970;2022-08-11T06:15:32;22.30;1.00
2409;DHT22;8463;48.094;7.970;2022-08-11T06:18:00;22.20;1.00
2409;DHT22;8463;48.094;7.970;2022-08-11T06:20:27;22.20;1.00
2409;DHT22;8463;48.094;7.970;2022-08-11T06:23:05;22.30;1.00
2409;DHT22;8463;48.094;7.970;2022-08-11T06:28:03;22.50;1.00
2409;DHT22;8463;48.094;7.970;2022-08-11T06:30:39;22.60;1.00
2409;DHT22;8463;48.094;7.970;2022-08-11T06:33:17;22.80;1.00
2409;DHT22;8463;48.094;7.970;2022-08-11T06:36:09;23.20;1.00
2409;DHT22;8463;48.094;7.970;2022-08-11T06:39:01;23.30;1.00
2409;DHT22;8463;48.094;7.970;2022-08-11T06:41:39;23.30;1.00
2409;DHT22;8463;48.094;7.970;2022-08-11T06:46:43;23.60;1.00
2409;DHT22;8463;48.094;7.970;2022-08-11T06:49:19;23.90;1.00
2409;DHT22;8463;48.094;7.970;2022-08-11T06:52:06;24.10;1.00
2409;DHT22;8463;48.094;7.970;2022-08-11T06:54:36;24.10;1.00
2409;DHT22;8463;48.094;7.970;2022-08-11T06:57:06;24.10;1.00
2409;DHT22;8463;48.094;7.970;2022-08-11T06:59:52;24.20;1.00
2409;DHT22;8463;48.094;7.970;2022-08-11T07:02:44;24.40;1.00
2409;DHT22;8463;48.094;7.970;2022-08-11T07:05:20;24.50;1.00
2409;DHT22;8463;48.094;7.970;2022-08-11T07:08:14;24.60;1.00
2409;DHT22;8463;48.094;7.970;2022-08-11T07:11:32;24.90;1.00
2409;DHT22;8463;48.094;7.970;2022-08-11T07:14:22;25.00;1.00
2409;DHT22;8463;48.094;7.970;2022-08-11T07:17:12;25.20;1.00
2409;DHT22;8463;48.094;7.970;2022-08-11T07:19:42;25.30;1.00
2409;DHT22;8463;48.094;7.970;2022-08-11T07:22:30;25.30;1.00
2409;DHT22;8463;48.094;7.970;2022-08-11T07:25:16;25.40;1.00
2409;DHT22;8463;48.094;7.970;2022-08-11T07:28:08;25.60;1.00
2409;DHT22;8463;48.094;7.970;2022-08-11T07:30:59;25.70;1.00
2409;DHT22;8463;48.094;7.970;2022-08-11T07:33:38;25.90;1.00
2409;DHT22;8463;48.094;7.970;2022-08-11T07:36:07;26.00;1.00
2409;DHT22;8463;48.094;7.970;2022-08-11T07:38:51;26.00;1.00
2409;DHT22;8463;48.094;7.970;2022-08-11T07:41:21;26.10;1.00
2409;DHT22;8463;48.094;7.970;2022-08-11T07:43:50;26.30;1.00
2409;DHT22;8463;48.094;7.970;2022-08-11T07:46:17;26.50;1.00
2409;DHT22;8463;48.094;7.970;2022-08-11T07:49:03;26.70;1.00
2409;DHT22;8463;48.094;7.970;2022-08-11T07:51:51;26.70;1.00
2409;DHT22;8463;48.094;7.970;2022-08-11T07:54:37;26.80;1.00
2409;DHT22;8463;48.094;7.970;2022-08-11T07:57:06;26.90;1.00
2409;DHT22;8463;48.094;7.970;2022-08-11T07:59:52;27.00;1.00
2409;DHT22;8463;48.094;7.970;2022-08-11T08:02:38;27.10;1.00
2409;DHT22;8463;48.094;7.970;2022-08-11T08:05:23;27.40;1.00
2409;DHT22;8463;48.094;7.970;2022-08-11T08:08:08;27.40;1.00
2409;DHT22;8463;48.094;7.970;2022-08-11T08:10:54;27.60;1.00
2409;DHT22;8463;48.094;7.970;2022-08-11T08:13:40;27.60;1.00
2409;DHT22;8463;48.094;7.970;2022-08-11T08:16:24;27.60;1.00
2409;DHT22;8463;48.094;7.970;2022-08-11T08:19:14;27.60;1.00
2409;DHT22;8463;48.094;7.970;2022-08-11T08:21:42;27.60;1.00
2409;DHT22;8463;48.094;7.970;2022-08-11T08:24:09;27.70;1.00
2409;DHT22;8463;48.094;7.970;2022-08-11T08:26:36;27.70;1.00
2409;DHT22;8463;48.094;7.970;2022-08-11T08:29:21;27.70;1.00
2409;DHT22;8463;48.094;7.970;2022-08-11T08:32:09;27.70;1.00
2409;DHT22;8463;48.094;7.970;2022-08-11T08:34:39;27.80;1.00
2409;DHT22;8463;48.094;7.970;2022-08-11T08:37:08;27.90;1.00
2409;DHT22;8463;48.094;7.970;2022-08-11T08:39:34;28.00;1.00
2409;DHT22;8463;48.094;7.970;2022-08-11T08:42:09;28.10;1.00
2409;DHT22;8463;48.094;7.970;2022-08-11T08:44:40;28.20;1.00
2409;DHT22;8463;48.094;7.970;2022-08-11T08:47:11;28.30;1.00
2409;DHT22;8463;48.094;7.970;2022-08-11T08:49:44;28.30;1.00
2409;DHT22;8463;48.094;7.970;2022-08-11T08:52:14;28.40;1.00
2409;DHT22;8463;48.094;7.970;2022-08-11T08:54:42;28.30;1.00
2409;DHT22;8463;48.094;7.970;2022-08-11T08:57:09;28.40;1.00
2409;DHT22;8463;48.094;7.970;2022-08-11T08:59:41;28.40;1.00
2409;DHT22;8463;48.094;7.970;2022-08-11T09:02:08;28.50;1.00
2409;DHT22;8463;48.094;7.970;2022-08-11T09:04:42;28.70;1.00
2409;DHT22;8463;48.094;7.970;2022-08-11T09:07:15;28.70;1.00
2409;DHT22;8463;48.094;7.970;2022-08-11T09:09:49;28.90;1.00
2409;DHT22;8463;48.094;7.970;2022-08-11T09:12:18;28.90;1.00
2409;DHT22;8463;48.094;7.970;2022-08-11T09:14:48;28.90;1.00
2409;DHT22;8463;48.094;7.970;2022-08-11T09:17:38;29.10;1.00
2409;DHT22;8463;48.094;7.970;2022-08-11T09:20:08;29.20;1.00
2409;DHT22;8463;48.094;7.970;2022-08-11T09:22:39;29.40;1.00
2409;DHT22;8463;48.094;7.970;2022-08-11T09:25:30;29.60;1.00
2409;DHT22;8463;48.094;7.970;2022-08-11T09:28:15;29.70;1.00
2409;DHT22;8463;48.094;7.970;2022-08-11T09:30:43;29.70;1.00
2409;DHT22;8463;48.094;7.970;2022-08-11T09:33:12;29.70;1.00
2409;DHT22;8463;48.094;7.970;2022-08-11T09:35:39;29.80;1.00
2409;DHT22;8463;48.094;7.970;2022-08-11T09:38:10;29.90;1.00
2409;DHT22;8463;48.094;7.970;2022-08-11T09:40:56;30.10;1.00
2409;DHT22;8463;48.094;7.970;2022-08-11T09:43:23;30.20;1.00
2409;DHT22;8463;48.094;7.970;2022-08-11T09:46:08;30.20;1.00
2409;DHT22;8463;48.094;7.970;2022-08-11T09:48:45;30.30;1.00
2409;DHT22;8463;48.094;7.970;2022-08-11T09:51:12;30.40;1.00
2409;DHT22;8463;48.094;7.970;2022-08-11T09:53:41;30.30;1.00
2409;DHT22;8463;48.094;7.970;2022-08-11T09:56:15;30.30;1.00
2409;DHT22;8463;48.094;7.970;2022-08-11T09:59:00;30.30;1.00
2409;DHT22;8463;48.094;7.970;2022-08-11T10:01:30;30.50;1.00
2409;DHT22;8463;48.094;7.970;2022-08-11T10:04:12;30.50;1.00
2409;DHT22;8463;48.094;7.970;2022-08-11T10:06:43;30.50;1.00
2409;DHT22;8463;48.094;7.970;2022-08-11T10:09:51;30.70;1.00
2409;DHT22;8463;48.094;7.970;2022-08-11T10:12:41;30.90;1.00
2409;DHT22;8463;48.094;7.970;2022-08-11T10:15:13;30.60;1.00
2409;DHT22;8463;48.094;7.970;2022-08-11T10:18:10;30.70;1.00
2409;DHT22;8463;48.094;7.970;2022-08-11T10:20:59;30.80;1.00
2409;DHT22;8463;48.094;7.970;2022-08-11T10:23:30;30.90;1.00
2409;DHT22;8463;48.094;7.970;2022-08-11T10:26:17;30.90;1.00
2409;DHT22;8463;48.094;7.970;2022-08-11T10:29:02;31.00;1.00
2409;DHT22;8463;48.094;7.970;2022-08-11T10:31:49;31.20;1.00
2409;DHT22;8463;48.094;7.970;2022-08-11T10:34:37;31.30;1.00
2409;DHT22;8463;48.094;7.970;2022-08-11T10:37:02;31.40;1.00
2409;DHT22;8463;48.094;7.970;2022-08-11T10:39:32;31.50;1.00
2409;DHT22;8463;48.094;7.970;2022-08-11T10:41:59;31.70;1.00
2409;DHT22;8463;48.094;7.970;2022-08-11T10:44:49;31.80;1.00
2409;DHT22;8463;48.094;7.970;2022-08-11T10:47:15;32.00;1.00
2409;DHT22;8463;48.094;7.970;2022-08-11T10:50:10;31.90;1.00
2409;DHT22;8463;48.094;7.970;2022-08-11T10:52:58;31.80;1.00
2409;DHT22;8463;48.094;7.970;2022-08-11T10:55:43;32.00;1.00
2409;DHT22;8463;48.094;7.970;2022-08-11T10:58:29;32.10;1.00
2409;DHT22;8463;48.094;7.970;2022-08-11T11:01:27;32.10;1.00
2409;DHT22;8463;48.094;7.970;2022-08-11T11:04:01;32.10;1.00
2409;DHT22;8463;48.094;7.970;2022-08-11T11:09:49;32.40;1.00
2409;DHT22;8463;48.094;7.970;2022-08-11T11:12:22;32.40;1.00
2409;DHT22;8463;48.094;7.970;2022-08-11T11:15:07;32.40;1.00
2409;DHT22;8463;48.094;7.970;2022-08-11T11:17:55;32.20;1.00
2409;DHT22;8463;48.094;7.970;2022-08-11T11:20:28;32.20;1.00
2409;DHT22;8463;48.094;7.970;2022-08-11T11:22:56;32.40;1.00
2409;DHT22;8463;48.094;7.970;2022-08-11T11:29:06;32.60;1.00
2409;DHT22;8463;48.094;7.970;2022-08-11T11:37:23;32.80;1.00
2409;DHT22;8463;48.094;7.970;2022-08-11T11:39:49;32.80;1.00
2409;DHT22;8463;48.094;7.970;2022-08-11T11:42:15;32.40;1.00
2409;DHT22;8463;48.094;7.970;2022-08-11T11:44:44;32.40;1.00
2409;DHT22;8463;48.094;7.970;2022-08-11T11:47:11;32.50;1.00
2409;DHT22;8463;48.094;7.970;2022-08-11T11:49:40;32.50;1.00
2409;DHT22;8463;48.094;7.970;2022-08-11T11:52:16;32.80;1.00
2409;DHT22;8463;48.094;7.970;2022-08-11T11:54:44;32.70;1.00
2409;DHT22;8463;48.094;7.970;2022-08-11T11:57:11;32.80;1.00
2409;DHT22;8463;48.094;7.970;2022-08-11T11:59:57;32.70;1.00
2409;DHT22;8463;48.094;7.970;2022-08-11T12:02:42;32.70;1.00
2409;DHT22;8463;48.094;7.970;2022-08-11T12:05:09;33.10;1.00
2409;DHT22;8463;48.094;7.970;2022-08-11T12:07:35;33.00;1.00
2409;DHT22;8463;48.094;7.970;2022-08-11T12:10:20;33.40;1.00
2409;DHT22;8463;48.094;7.970;2022-08-11T12:12:47;33.50;1.00
2409;DHT22;8463;48.094;7.970;2022-08-11T12:15:31;33.40;1.00
2409;DHT22;8463;48.094;7.970;2022-08-11T12:17:59;33.50;1.00
2409;DHT22;8463;48.094;7.970;2022-08-11T12:20:26;33.30;1.00
2409;DHT22;8463;48.094;7.970;2022-08-11T12:22:53;33.00;1.00
2409;DHT22;8463;48.094;7.970;2022-08-11T12:25:37;33.10;1.00
2409;DHT22;8463;48.094;7.970;2022-08-11T12:28:22;33.20;1.00
2409;DHT22;8463;48.094;7.970;2022-08-11T12:30:50;33.30;1.00
2409;DHT22;8463;48.094;7.970;2022-08-11T12:33:18;33.50;1.00
2409;DHT22;8463;48.094;7.970;2022-08-11T12:35:45;33.70;1.00
2409;DHT22;8463;48.094;7.970;2022-08-11T12:38:12;33.90;1.00
2409;DHT22;8463;48.094;7.970;2022-08-11T12:40:39;33.90;1.00
2409;DHT22;8463;48.094;7.970;2022-08-11T12:43:26;33.90;1.00
2409;DHT22;8463;48.094;7.970;2022-08-11T12:46:19;33.90;1.00
2409;DHT22;8463;48.094;7.970;2022-08-11T12:48:47;33.80;1.00
2409;DHT22;8463;48.094;7.970;2022-08-11T12:51:35;33.80;1.00
2409;DHT22;8463;48.094;7.970;2022-08-11T12:57:28;34.30;1.00
2409;DHT22;8463;48.094;7.970;2022-08-11T13:02:58;34.00;1.00
2409;DHT22;8463;48.094;7.970;2022-08-11T13:05:45;33.90;1.00
2409;DHT22;8463;48.094;7.970;2022-08-11T13:08:13;34.00;1.00
2409;DHT22;8463;48.094;7.970;2022-08-11T13:10:42;34.00;1.00
2409;DHT22;8463;48.094;7.970;2022-08-11T13:13:29;34.30;1.00
2409;DHT22;8463;48.094;7.970;2022-08-11T13:15:55;34.30;1.00
2409;DHT22;8463;48.094;7.970;2022-08-11T13:18:22;34.30;1.00
2409;DHT22;8463;48.094;7.970;2022-08-11T13:20:57;34.10;1.00
2409;DHT22;8463;48.094;7.970;2022-08-11T13:23:24;34.20;1.00
2409;DHT22;8463;48.094;7.970;2022-08-11T13:25:53;34.30;1.00
2409;DHT22;8463;48.094;7.970;2022-08-11T13:28:23;34.40;1.00
2409;DHT22;8463;48.094;7.970;2022-08-11T13:30:49;34.70;1.00
2409;DHT22;8463;48.094;7.970;2022-08-11T13:33:46;34.10;1.00
2409;DHT22;8463;48.094;7.970;2022-08-11T13:36:18;34.40;1.00
2409;DHT22;8463;48.094;7.970;2022-08-11T13:38:45;34.30;1.00
2409;DHT22;8463;48.094;7.970;2022-08-11T13:41:11;34.40;1.00
2409;DHT22;8463;48.094;7.970;2022-08-11T13:43:55;34.40;1.00
2409;DHT22;8463;48.094;7.970;2022-08-11T13:46:22;34.20;1.00
2409;DHT22;8463;48.094;7.970;2022-08-11T13:48:50;34.20;1.00
2409;DHT22;8463;48.094;7.970;2022-08-11T13:51:17;34.20;1.00
2409;DHT22;8463;48.094;7.970;2022-08-11T13:54:07;34.30;1.00
2409;DHT22;8463;48.094;7.970;2022-08-11T13:56:36;34.60;1.00
2409;DHT22;8463;48.094;7.970;2022-08-11T13:59:06;34.70;1.00
2409;DHT22;8463;48.094;7.970;2022-08-11T14:01:37;34.80;1.00
2409;DHT22;8463;48.094;7.970;2022-08-11T14:04:15;34.70;1.00
2409;DHT22;8463;48.094;7.970;2022-08-11T14:06:47;34.70;1.00
2409;DHT22;8463;48.094;7.970;2022-08-11T14:09:15;34.60;1.00
2409;DHT22;8463;48.094;7.970;2022-08-11T14:11:45;34.70;1.00
2409;DHT22;8463;48.094;7.970;2022-08-11T14:14:33;34.60;1.00
2409;DHT22;8463;48.094;7.970;2022-08-11T14:17:04;34.40;1.00
2409;DHT22;8463;48.094;7.970;2022-08-11T14:19:34;34.60;1.00
2409;DHT22;8463;48.094;7.970;2022-08-11T14:22:02;34.50;1.00
2409;DHT22;8463;48.094;7.970;2022-08-11T14:24:41;34.70;1.00
2409;DHT22;8463;48.094;7.970;2022-08-11T14:27:09;34.80;1.00
2409;DHT22;8463;48.094;7.970;2022-08-11T14:32:08;35.00;1.00
2409;DHT22;8463;48.094;7.970;2022-08-11T14:34:38;34.90;1.00
2409;DHT22;8463;48.094;7.970;2022-08-11T14:37:12;34.60;1.00
2409;DHT22;8463;48.094;7.970;2022-08-11T14:39:52;34.40;1.00
2409;DHT22;8463;48.094;7.970;2022-08-11T14:42:22;34.70;1.00
2409;DHT22;8463;48.094;7.970;2022-08-11T14:45:09;34.70;1.00
2409;DHT22;8463;48.094;7.970;2022-08-11T14:47:58;34.80;1.00
2409;DHT22;8463;48.094;7.970;2022-08-11T14:50:30;34.90;1.00
2409;DHT22;8463;48.094;7.970;2022-08-11T14:53:06;35.10;1.00
2409;DHT22;8463;48.094;7.970;2022-08-11T14:55:40;35.20;1.00
2409;DHT22;8463;48.094;7.970;2022-08-11T14:58:27;35.10;1.00
2409;DHT22;8463;48.094;7.970;2022-08-11T15:03:21;35.10;1.00
2409;DHT22;8463;48.094;7.970;2022-08-11T15:05:51;35.20;1.00
2409;DHT22;8463;48.094;7.970;2022-08-11T15:10:46;35.20;1.00
2409;DHT22;8463;48.094;7.970;2022-08-11T15:13:15;35.30;1.00
2409;DHT22;8463;48.094;7.970;2022-08-11T15:15:43;35.20;1.00
2409;DHT22;8463;48.094;7.970;2022-08-11T15:18:28;35.10;1.00
2409;DHT22;8463;48.094;7.970;2022-08-11T15:20:55;35.10;1.00
2409;DHT22;8463;48.094;7.970;2022-08-11T15:23:39;35.10;1.00
2409;DHT22;8463;48.094;7.970;2022-08-11T15:26:35;34.30;1.00
2409;DHT22;8463;48.094;7.970;2022-08-11T15:29:23;34.20;1.00
2409;DHT22;8463;48.094;7.970;2022-08-11T15:32:09;34.20;1.00
2409;DHT22;8463;48.094;7.970;2022-08-11T15:34:58;34.40;1.00
2409;DHT22;8463;48.094;7.970;2022-08-11T15:37:44;34.50;1.00
2409;DHT22;8463;48.094;7.970;2022-08-11T15:40:36;34.30;1.00
2409;DHT22;8463;48.094;7.970;2022-08-11T15:43:27;34.50;1.00
2409;DHT22;8463;48.094;7.970;2022-08-11T15:49:12;34.80;1.00
2409;DHT22;8463;48.094;7.970;2022-08-11T15:54:15;34.90;1.00
2409;DHT22;8463;48.094;7.970;2022-08-11T15:56:44;34.90;1.00
2409;DHT22;8463;48.094;7.970;2022-08-11T15:59:13;35.00;1.00
2409;DHT22;8463;48.094;7.970;2022-08-11T16:01:58;34.90;1.00
2409;DHT22;8463;48.094;7.970;2022-08-11T16:04:41;34.90;1.00
2409;DHT22;8463;48.094;7.970;2022-08-11T16:07:10;34.60;1.00
2409;DHT22;8463;48.094;7.970;2022-08-11T16:09:38;34.60;1.00
2409;DHT22;8463;48.094;7.970;2022-08-11T16:12:08;34.60;1.00
2409;DHT22;8463;48.094;7.970;2022-08-11T16:14:38;34.40;1.00
2409;DHT22;8463;48.094;7.970;2022-08-11T16:17:25;34.40;1.00
2409;DHT22;8463;48.094;7.970;2022-08-11T16:19:53;34.40;1.00
2409;DHT22;8463;48.094;7.970;2022-08-11T16:22:23;34.30;1.00
2409;DHT22;8463;48.094;7.970;2022-08-11T16:24:53;34.30;1.00
2409;DHT22;8463;48.094;7.970;2022-08-11T16:27:20;34.20;1.00
2409;DHT22;8463;48.094;7.970;2022-08-11T16:29:46;34.10;1.00
2409;DHT22;8463;48.094;7.970;2022-08-11T16:32:17;33.90;1.00
2409;DHT22;8463;48.094;7.970;2022-08-11T16:34:56;33.60;1.00
2409;DHT22;8463;48.094;7.970;2022-08-11T16:37:41;33.30;1.00
2409;DHT22;8463;48.094;7.970;2022-08-11T16:40:27;33.30;1.00
2409;DHT22;8463;48.094;7.970;2022-08-11T16:42:54;32.80;1.00
2409;DHT22;8463;48.094;7.970;2022-08-11T16:45:40;32.50;1.00
2409;DHT22;8463;48.094;7.970;2022-08-11T16:48:30;32.50;1.00
2409;DHT22;8463;48.094;7.970;2022-08-11T16:50:57;32.10;1.00
2409;DHT22;8463;48.094;7.970;2022-08-11T16:53:28;32.00;1.00
2409;DHT22;8463;48.094;7.970;2022-08-11T16:55:57;31.90;1.00
2409;DHT22;8463;48.094;7.970;2022-08-11T16:58:24;31.80;1.00
2409;DHT22;8463;48.094;7.970;2022-08-11T17:01:10;31.70;1.00
2409;DHT22;8463;48.094;7.970;2022-08-11T17:03:45;31.60;1.00
2409;DHT22;8463;48.094;7.970;2022-08-11T17:06:31;31.40;1.00
2409;DHT22;8463;48.094;7.970;2022-08-11T17:09:21;31.30;1.00
2409;DHT22;8463;48.094;7.970;2022-08-11T17:12:07;31.20;1.00
2409;DHT22;8463;48.094;7.970;2022-08-11T17:14:55;31.30;1.00
2409;DHT22;8463;48.094;7.970;2022-08-11T17:17:33;31.10;1.00
2409;DHT22;8463;48.094;7.970;2022-08-11T17:20:03;31.10;1.00
2409;DHT22;8463;48.094;7.970;2022-08-11T17:22:33;31.00;1.00
2409;DHT22;8463;48.094;7.970;2022-08-11T17:27:45;30.80;1.00
2409;DHT22;8463;48.094;7.970;2022-08-11T17:30:12;30.70;1.00
2409;DHT22;8463;48.094;7.970;2022-08-11T17:32:42;30.60;1.00
2409;DHT22;8463;48.094;7.970;2022-08-11T17:35:31;30.70;1.00
2409;DHT22;8463;48.094;7.970;2022-08-11T17:40:33;30.40;1.00
2409;DHT22;8463;48.094;7.970;2022-08-11T17:43:02;30.30;1.00
2409;DHT22;8463;48.094;7.970;2022-08-11T17:45:47;30.20;1.00
2409;DHT22;8463;48.094;7.970;2022-08-11T17:48:35;30.20;1.00
2409;DHT22;8463;48.094;7.970;2022-08-11T17:51:10;30.10;1.00
2409;DHT22;8463;48.094;7.970;2022-08-11T17:53:40;30.00;1.00
2409;DHT22;8463;48.094;7.970;2022-08-11T17:56:26;29.90;1.00
2409;DHT22;8463;48.094;7.970;2022-08-11T17:59:14;29.80;1.00
2409;DHT22;8463;48.094;7.970;2022-08-11T18:02:01;29.70;1.00
2409;DHT22;8463;48.094;7.970;2022-08-11T18:04:49;29.60;1.00
2409;DHT22;8463;48.094;7.970;2022-08-11T18:07:17;29.50;1.00
2409;DHT22;8463;48.094;7.970;2022-08-11T18:10:06;29.40;1.00
2409;DHT22;8463;48.094;7.970;2022-08-11T18:12:54;29.20;1.00
2409;DHT22;8463;48.094;7.970;2022-08-11T18:15:42;29.10;1.00
2409;DHT22;8463;48.094;7.970;2022-08-11T18:18:27;29.10;1.00
2409;DHT22;8463;48.094;7.970;2022-08-11T18:21:16;29.00;1.00
2409;DHT22;8463;48.094;7.970;2022-08-11T18:24:10;29.00;1.00
2409;DHT22;8463;48.094;7.970;2022-08-11T18:26:57;28.90;1.00
2409;DHT22;8463;48.094;7.970;2022-08-11T18:29:43;28.90;1.00
2409;DHT22;8463;48.094;7.970;2022-08-11T18:32:29;28.80;1.00
2409;DHT22;8463;48.094;7.970;2022-08-11T18:35:15;28.70;1.00
2409;DHT22;8463;48.094;7.970;2022-08-11T18:38:02;28.60;1.00
2409;DHT22;8463;48.094;7.970;2022-08-11T18:40:49;28.50;1.00
2409;DHT22;8463;48.094;7.970;2022-08-11T18:43:36;28.50;1.00
2409;DHT22;8463;48.094;7.970;2022-08-11T18:46:23;28.40;1.00
2409;DHT22;8463;48.094;7.970;2022-08-11T18:49:14;28.40;1.00
2409;DHT22;8463;48.094;7.970;2022-08-11T18:51:59;28.30;1.00
2409;DHT22;8463;48.094;7.970;2022-08-11T18:54:46;28.30;1.00
2409;DHT22;8463;48.094;7.970;2022-08-11T18:57:33;28.20;1.00
2409;DHT22;8463;48.094;7.970;2022-08-11T19:00:19;28.10;1.00
2409;DHT22;8463;48.094;7.970;2022-08-11T19:03:06;28.10;1.00
2409;DHT22;8463;48.094;7.970;2022-08-11T19:05:52;28.00;1.00
2409;DHT22;8463;48.094;7.970;2022-08-11T19:08:41;27.90;1.00
2409;DHT22;8463;48.094;7.970;2022-08-11T19:11:30;27.80;1.00
2409;DHT22;8463;48.094;7.970;2022-08-11T19:14:16;27.90;1.00
2409;DHT22;8463;48.094;7.970;2022-08-11T19:17:01;27.80;1.00
2409;DHT22;8463;48.094;7.970;2022-08-11T19:22:32;27.70;1.00
2409;DHT22;8463;48.094;7.970;2022-08-11T19:25:19;27.70;1.00
2409;DHT22;8463;48.094;7.970;2022-08-11T19:28:06;27.60;1.00
2409;DHT22;8463;48.094;7.970;2022-08-11T19:30:51;27.60;1.00
2409;DHT22;8463;48.094;7.970;2022-08-11T19:33:37;27.50;1.00
2409;DHT22;8463;48.094;7.970;2022-08-11T19:36:22;27.50;1.00
2409;DHT22;8463;48.094;7.970;2022-08-11T19:39:08;27.50;1.00
2409;DHT22;8463;48.094;7.970;2022-08-11T19:41:54;27.50;1.00
2409;DHT22;8463;48.094;7.970;2022-08-11T19:44:40;27.50;1.00
2409;DHT22;8463;48.094;7.970;2022-08-11T19:47:25;27.30;1.00
2409;DHT22;8463;48.094;7.970;2022-08-11T19:50:11;27.30;1.00
2409;DHT22;8463;48.094;7.970;2022-08-11T19:52:57;27.30;1.00
2409;DHT22;8463;48.094;7.970;2022-08-11T19:55:45;27.30;1.00
2409;DHT22;8463;48.094;7.970;2022-08-11T19:58:30;27.20;1.00
2409;DHT22;8463;48.094;7.970;2022-08-11T20:01:15;27.20;1.00
2409;DHT22;8463;48.094;7.970;2022-08-11T20:03:59;27.10;1.00
2409;DHT22;8463;48.094;7.970;2022-08-11T20:06:43;27.10;1.00
2409;DHT22;8463;48.094;7.970;2022-08-11T20:12:13;27.10;1.00
2409;DHT22;8463;48.094;7.970;2022-08-11T20:14:57;27.10;1.00
2409;DHT22;8463;48.094;7.970;2022-08-11T20:17:42;27.00;1.00
2409;DHT22;8463;48.094;7.970;2022-08-11T20:20:29;26.90;1.00
2409;DHT22;8463;48.094;7.970;2022-08-11T20:23:15;26.80;1.00
2409;DHT22;8463;48.094;7.970;2022-08-11T20:26:01;26.90;1.00
2409;DHT22;8463;48.094;7.970;2022-08-11T20:28:48;26.80;1.00
2409;DHT22;8463;48.094;7.970;2022-08-11T20:31:33;26.60;1.00
2409;DHT22;8463;48.094;7.970;2022-08-11T20:37:03;26.30;1.00
2409;DHT22;8463;48.094;7.970;2022-08-11T20:39:49;26.20;1.00
2409;DHT22;8463;48.094;7.970;2022-08-11T20:42:35;26.30;1.00
2409;DHT22;8463;48.094;7.970;2022-08-11T20:45:21;26.20;1.00
2409;DHT22;8463;48.094;7.970;2022-08-11T20:48:06;26.20;1.00
2409;DHT22;8463;48.094;7.970;2022-08-11T20:50:51;26.20;1.00
2409;DHT22;8463;48.094;7.970;2022-08-11T20:53:39;26.30;1.00
2409;DHT22;8463;48.094;7.970;2022-08-11T20:56:27;26.40;1.00
2409;DHT22;8463;48.094;7.970;2022-08-11T20:59:12;26.30;1.00
2409;DHT22;8463;48.094;7.970;2022-08-11T21:01:58;26.30;1.00
2409;DHT22;8463;48.094;7.970;2022-08-11T21:04:43;26.40;1.00
2409;DHT22;8463;48.094;7.970;2022-08-11T21:07:31;26.40;1.00
2409;DHT22;8463;48.094;7.970;2022-08-11T21:10:16;26.30;1.00
2409;DHT22;8463;48.094;7.970;2022-08-11T21:13:03;26.20;1.00
2409;DHT22;8463;48.094;7.970;2022-08-11T21:15:48;25.90;1.00
2409;DHT22;8463;48.094;7.970;2022-08-11T21:18:33;25.80;1.00
2409;DHT22;8463;48.094;7.970;2022-08-11T21:21:19;25.80;1.00
2409;DHT22;8463;48.094;7.970;2022-08-11T21:26:51;25.90;1.00
2409;DHT22;8463;48.094;7.970;2022-08-11T21:29:36;25.80;1.00
2409;DHT22;8463;48.094;7.970;2022-08-11T21:35:08;25.60;1.00
2409;DHT22;8463;48.094;7.970;2022-08-11T21:37:52;25.60;1.00
2409;DHT22;8463;48.094;7.970;2022-08-11T21:46:09;25.50;1.00
2409;DHT22;8463;48.094;7.970;2022-08-11T21:48:53;25.50;1.00